Historyczne dane pomiarowe

Dodano dane terminowe – wersja testowa.

Dane z okresu 1951-2019

Wersja bazy: 1.34 [2019-03-16, lista zmian], aktualizacja planowana na 2019-04-15

Dane meteo z obszaru Polski uzyskane na podstawie danych udostępnionych przez Instytut Meteorologii i Gospodarki Wodnej – Państwowy Instytut Badawczy.

 

Wybierz Datę:    

       

TemperaturaWilgotnośćWiatrCiśnienieOpadyŚniegCzas trwania zjawisk
 Stacja t tx tn tng RH VA  wxwx mslp ppp RRR   cm mm wxwxwxwxwxwxwx
1961-08-14 14.4 20.0 8.2 5.4 84.0- 1.3 1.0---- 0.0------------
1961-08-13 14.0 19.1 12.7 9.7 93.0- 6.3 4.0---- 10.2------------
1961-08-12 20.1 24.8 15.5 11.4 89.3- 7.0 3.0---- 19.3------------
1961-08-11 25.9 33.4 17.9 14.5 70.8- 3.0 4.7---- 0.8------------
1961-08-10 24.2 31.2 19.5 16.9 86.3- 2.3 3.3---- 0.0------------
1961-08-09 23.0 30.3 14.9 12.0 80.0- 2.3 1.0---- 12.1------------
1961-08-08 21.0 26.0 16.7 12.7 80.3- 5.3 4.0---- 0.0------------
1961-08-07 24.7 30.2 18.2 11.7 66.0- 2.0 2.0---- 0.0------------
1961-08-06 23.1 29.6 11.6 8.2 67.8- 0.3 4.3---- 0.0------------
1961-08-05 19.1 23.8 14.9 12.2 79.3- 5.7 4.0---- 0.0------------
1961-08-04 16.9 21.5 12.8 11.0 81.0- 4.0 2.7---- 0.0------------
1961-08-03 18.1 24.6 11.0 7.2 88.0- 5.7 3.0---- 11.5------------
1961-08-02 18.8 26.0 8.2 4.7 75.8- 0.7 2.0---- 0.0------------
1961-08-01 16.5 22.2 11.6 9.6 82.0- 5.7 3.3---- 0.0------------
1961-07-31 14.8 19.5 11.1- 83.5- 6.3 4.7---- 1.0------------
1961-07-30 12.5 14.2 11.2- 99.8- 8.0 4.7---- 13.7------------
1961-07-29 14.5 18.3 13.1- 96.8- 8.0 4.0---- 28.0------------
1961-07-28 20.3 28.4 17.0- 81.5- 4.0 3.3---- 0.8------------
1961-07-27 21.7 27.2 13.5- 65.0- 4.3 4.0---- 0.0------------
1961-07-26 16.5 22.1 11.5- 70.0- 6.0 3.7---- 0.0------------
1961-07-25 14.8 18.5 10.3- 72.5- 6.7 4.0---- 0.0------------
1961-07-24 15.4 20.9 10.4- 74.8- 6.0 3.0---- 0.0------------
1961-07-23 16.5 21.1 10.1- 80.3- 4.7 3.7---- 0.0------------
1961-07-22 15.0 20.1 12.4- 82.5- 5.0 4.3---- 0.1------------
1961-07-21 15.8 21.2 10.9- 77.3- 4.7 6.0---- 0.8------------
1961-07-20 15.8 20.7 9.0- 83.5- 7.0 4.0---- 19.8------------
1961-07-19 15.4 21.9 6.7- 81.8- 3.0 1.7---- 0.1------------
1961-07-18 15.0 20.8 9.4- 75.8- 3.0 3.3---- 0.0------------
1961-07-17 17.5 23.5 13.4- 76.8- 5.7 2.7---- 5.8------------
1961-07-16 17.4 24.6 12.0- 75.3- 4.0 5.7---- 0.0------------
1961-07-15 18.6 25.1 6.9- 72.0- 5.0 3.7---- 1.4------------
1961-07-14 14.4 20.2 12.3- 79.5- 4.7 5.0---- 0.4------------
1961-07-13 21.0 29.6 14.2- 76.8- 4.7 5.3---- 5.4------------
1961-07-12 18.8 28.4 8.4- 74.8- 3.3 3.0---- 0.3------------
1961-07-11 15.5 21.9 7.8- 72.3- 3.7 3.7---- 0.0------------
1961-07-10 14.2 20.8 11.1- 80.5- 5.7 5.3---- 2.8------------
1961-07-09 16.5 24.3 6.1- 75.3- 5.3 3.0---- 0.1------------
1961-07-08 14.9 21.6 6.8- 74.0- 1.7 2.0---- 0.0------------
1961-07-07 14.0 19.2 6.6- 75.3- 4.3 3.3---- 0.0------------
1961-07-06 14.0 18.4 8.9- 70.0- 3.7 5.0---- 0.0------------
1961-07-05 15.4 20.8 12.8- 81.0- 7.3 3.0---- 0.3------------
1961-07-04 22.6 31.8 14.1- 74.0- 2.7 2.0---- 3.8------------
1961-07-03 21.5 30.7 10.1- 62.5- 0.3 2.3---- 0.0------------
1961-07-02 20.5 28.7 8.7- 66.5- 0.0 1.3---- 0.0------------
1961-07-01 19.3 27.4 9.7- 68.5- 1.7 2.0---- 0.0------------
1961-06-30 17.4 23.2 10.6- 74.0- 3.7 3.0---- 0.0------------
1961-06-29 15.6 20.3 6.2- 70.0- 6.0 3.0---- 0.0------------
1961-06-28 14.4 22.9 11.9- 87.5- 6.3 4.7---- 2.4------------
1961-06-27 24.7 31.3 14.8- 59.8- 2.3 8.0---- 1.6------------
1961-06-26 22.5 31.2 13.3- 75.5- 4.0 3.7---- 2.3------------
1961-06-25 22.4 29.7 8.4- 62.3- 1.3 4.0---- 0.0------------
1961-06-24 18.0 25.8 11.1- 72.8- 3.3 3.3---- 0.0------------
1961-06-23 18.1 23.9 12.1- 78.0- 5.3 5.0---- 2.0------------
1961-06-22 17.3 23.9 9.7- 75.5- 1.3 3.3---- 2.0------------
1961-06-21 16.7 24.0 4.3- 70.0- 0.7 2.0---- 0.0------------
1961-06-20 14.7 21.4 10.9- 68.5- 1.3 2.7---- 0.0------------
1961-06-19 21.5 28.8 13.8- 73.8- 3.3 4.0---- 0.0------------
1961-06-18 18.8 25.8 6.6- 69.5- 1.3 1.7---- 0.0------------
1961-06-17 15.2 22.5 6.8- 73.5- 1.3 3.0---- 0.0------------
1961-06-16 14.0 19.9 8.4- 73.5- 1.3 4.7---- 0.0------------
291.8 ms

 

Źródłem pochodzenia danych jest Instytut Meteorologii i Gospodarki Wodnej – Państwowy Instytut Badawczy. Dane Instytutu Meteorologii i Gospodarki Wodnej – Państwowego Instytutu Badawczego zostały przetworzone.

Dane źródłowe można odnaleźć na stronie https://dane.imgw.pl